Time;durP1;ratioP1;P1;durP2;ratioP2;P2;SDS_P1;SDS_P2;PMS_P1;PMS_P2;Temp;Humidity;BMP_temperature;BMP_pressure;BME280_temperature;BME280_humidity;BME280_pressure;Samples;Min_cycle;Max_cycle;Signal;HPM_P1;HPM_P2
2022/03/14 00:00:22;;;;;;;5.83;3.80;;;0.80;91.80;;;;;;5078522;28;20246;-79
2022/03/14 00:02:48;;;;;;;6.73;4.03;;;0.70;92.50;;;;;;5079874;28;20193;-79
2022/03/14 00:05:17;;;;;;;4.60;3.70;;;0.60;93.20;;;;;;5076667;28;20214;-80
2022/03/14 00:07:44;;;;;;;5.77;3.80;;;0.40;93.90;;;;;;5078145;28;20180;-81
2022/03/14 00:10:13;;;;;;;4.70;3.87;;;0.40;94.10;;;;;;5076394;28;20181;-79
2022/03/14 00:12:42;;;;;;;7.20;3.70;;;0.30;94.60;;;;;;5077165;28;20216;-81
2022/03/14 00:15:11;;;;;;;5.77;4.27;;;0.20;95.60;;;;;;5076561;28;20544;-81
2022/03/14 00:17:39;;;;;;;6.20;3.97;;;0.10;97.00;;;;;;5080050;28;20209;-81
2022/03/14 00:20:08;;;;;;;6.87;4.40;;;0.00;98.80;;;;;;5076873;28;21054;-80
2022/03/14 00:22:34;;;;;;;7.27;4.60;;;-0.10;99.90;;;;;;5076630;28;20205;-80
2022/03/14 00:25:00;;;;;;;6.70;4.10;;;-0.20;99.90;;;;;;5078456;28;20185;-80
2022/03/14 00:27:26;;;;;;;6.00;4.27;;;-0.30;99.90;;;;;;5075252;28;20177;-80
2022/03/14 00:29:52;;;;;;;7.67;4.10;;;-0.30;99.90;;;;;;5077283;28;20300;-80
2022/03/14 00:32:18;;;;;;;6.23;4.50;;;-0.30;99.90;;;;;;5075184;28;20287;-79
2022/03/14 00:34:43;;;;;;;5.47;3.93;;;-0.40;99.90;;;;;;5075931;28;20292;-79
2022/03/14 00:37:09;;;;;;;6.20;4.17;;;-0.40;99.90;;;;;;5078754;28;20205;-80
2022/03/14 00:39:35;;;;;;;7.07;4.37;;;-0.50;99.90;;;;;;5077743;28;20215;-81
2022/03/14 00:42:02;;;;;;;6.50;4.30;;;-0.40;99.90;;;;;;5077869;28;20254;-81
2022/03/14 00:44:28;;;;;;;5.33;3.57;;;-0.30;99.90;;;;;;5078510;28;20227;-80
2022/03/14 00:46:54;;;;;;;7.27;4.43;;;-0.20;99.90;;;;;;5076541;28;20209;-81
2022/03/14 00:49:20;;;;;;;7.00;4.07;;;-0.10;99.90;;;;;;5077636;28;20652;-81
2022/03/14 00:51:45;;;;;;;6.97;4.30;;;-0.10;99.90;;;;;;5077412;28;20219;-81
2022/03/14 00:54:12;;;;;;;5.07;4.20;;;-0.10;99.90;;;;;;5077778;28;20185;-80
2022/03/14 00:56:37;;;;;;;5.83;4.17;;;-0.10;99.90;;;;;;5077088;28;20191;-79
2022/03/14 00:59:03;;;;;;;6.00;4.40;;;-0.10;99.90;;;;;;5077636;28;20655;-78
2022/03/14 01:01:29;;;;;;;5.73;4.07;;;-0.10;99.90;;;;;;5079672;28;20197;-80
2022/03/14 01:03:54;;;;;;;8.10;4.90;;;-0.20;99.90;;;;;;5078191;28;20253;-82
2022/03/14 01:06:21;;;;;;;5.50;3.97;;;-0.20;99.90;;;;;;5076446;28;20197;-78
2022/03/14 01:08:47;;;;;;;5.67;3.80;;;-0.10;99.90;;;;;;5077766;28;20189;-81
2022/03/14 01:11:13;;;;;;;5.30;4.30;;;-0.20;99.90;;;;;;5077060;28;20287;-79
2022/03/14 01:13:38;;;;;;;8.33;4.27;;;-0.20;99.90;;;;;;5078115;28;20211;-82
2022/03/14 01:16:04;;;;;;;5.27;3.80;;;-0.10;99.90;;;;;;5073892;28;20729;-80
2022/03/14 01:18:30;;;;;;;4.63;3.73;;;-0.20;99.90;;;;;;5077043;28;20654;-81
2022/03/14 01:20:56;;;;;;;6.13;4.33;;;-0.40;99.90;;;;;;5078010;28;20184;-82
2022/03/14 01:23:22;;;;;;;8.03;4.60;;;-0.40;99.90;;;;;;5075975;28;20236;-79
2022/03/14 01:25:49;;;;;;;7.33;4.73;;;-0.50;99.90;;;;;;5077514;28;20224;-80
2022/03/14 01:28:15;;;;;;;5.67;3.87;;;-0.60;99.90;;;;;;5075806;28;20654;-81
2022/03/14 01:30:41;;;;;;;6.13;4.13;;;-0.70;99.90;;;;;;5076972;28;20238;-80
2022/03/14 01:33:07;;;;;;;6.03;4.17;;;-0.80;99.90;;;;;;5076320;28;20212;-82
2022/03/14 01:35:32;;;;;;;7.20;3.93;;;-0.70;99.90;;;;;;5077140;28;20173;-79
2022/03/14 01:37:58;;;;;;;5.77;3.90;;;-0.70;99.90;;;;;;5078953;28;20268;-82
2022/03/14 01:40:24;;;;;;;6.17;4.30;;;-0.60;99.90;;;;;;5076486;28;20647;-80
2022/03/14 01:42:50;;;;;;;8.70;4.33;;;-0.60;99.90;;;;;;5076498;28;20207;-78
2022/03/14 01:45:17;;;;;;;5.40;3.80;;;-0.70;99.90;;;;;;5077808;28;20185;-80
2022/03/14 01:47:44;;;;;;;5.03;3.77;;;-0.80;99.90;;;;;;5094481;28;20236;-79
2022/03/14 01:50:12;;;;;;;5.50;4.50;;;-0.70;99.90;;;;;;5079746;28;20200;-80
2022/03/14 01:52:38;;;;;;;7.30;4.33;;;-0.70;99.90;;;;;;5078019;28;20205;-79
2022/03/14 01:55:04;;;;;;;6.30;4.30;;;-0.70;99.90;;;;;;5079853;28;20704;-80
2022/03/14 01:57:30;;;;;;;7.80;4.30;;;-0.70;99.90;;;;;;5078069;28;20678;-78
2022/03/14 01:59:56;;;;;;;6.00;4.10;;;-0.70;99.90;;;;;;5077032;28;20273;-81
2022/03/14 02:02:21;;;;;;;6.03;3.57;;;-0.80;99.90;;;;;;5078529;28;20207;-80
2022/03/14 02:04:47;;;;;;;5.07;3.60;;;-0.90;99.90;;;;;;5077060;28;20540;-81
2022/03/14 02:07:13;;;;;;;5.60;4.03;;;-0.90;99.90;;;;;;5076037;28;20217;-80
2022/03/14 02:09:38;;;;;;;5.93;3.90;;;-0.80;99.90;;;;;;5075687;28;20181;-82
2022/03/14 02:12:07;;;;;;;7.30;4.30;;;-0.90;99.90;;;;;;5074923;28;20212;-81
2022/03/14 02:14:36;;;;;;;6.37;4.13;;;-1.00;99.90;;;;;;5075476;28;20173;-80
2022/03/14 02:17:02;;;;;;;7.10;4.17;;;-1.00;99.90;;;;;;5076789;28;20180;-80
2022/03/14 02:19:28;;;;;;;5.63;4.00;;;-1.00;99.90;;;;;;5076236;28;20572;-78
2022/03/14 02:21:53;;;;;;;5.60;3.67;;;-1.00;99.90;;;;;;5072420;28;20296;-77
2022/03/14 02:24:19;;;;;;;9.70;4.30;;;-1.00;99.90;;;;;;5076986;28;20190;-81
2022/03/14 02:26:44;;;;;;;5.57;3.80;;;-0.90;99.90;;;;;;5077572;28;20728;-79
2022/03/14 02:29:12;;;;;;;9.53;4.63;;;-0.70;99.90;;;;;;5078053;28;20256;-79
2022/03/14 02:31:37;;;;;;;8.37;4.47;;;-0.50;99.90;;;;;;5077323;28;20224;-78
2022/03/14 02:34:05;;;;;;;6.97;4.80;;;-0.50;99.90;;;;;;5077819;28;20211;-80
2022/03/14 02:36:30;;;;;;;5.60;3.90;;;-0.50;99.90;;;;;;5076953;28;20174;-80
2022/03/14 02:38:56;;;;;;;6.43;4.37;;;-0.50;99.90;;;;;;5076668;28;20212;-79
2022/03/14 02:41:23;;;;;;;7.70;3.97;;;-0.70;99.90;;;;;;5079471;28;20562;-78
2022/03/14 02:43:48;;;;;;;6.60;4.40;;;-0.90;99.90;;;;;;5096220;28;20203;-80
2022/03/14 02:46:15;;;;;;;7.17;4.03;;;-1.00;99.90;;;;;;5079587;28;20189;-78
2022/03/14 02:48:41;;;;;;;5.97;4.00;;;-1.00;99.90;;;;;;5077793;28;20189;-79
2022/03/14 02:51:07;;;;;;;6.07;4.00;;;-1.00;99.90;;;;;;5079830;28;20578;-77
2022/03/14 02:53:32;;;;;;;6.03;4.10;;;-1.00;99.90;;;;;;5077568;28;20197;-79
2022/03/14 02:55:58;;;;;;;8.87;4.50;;;-1.10;99.90;;;;;;5079462;28;20177;-77
2022/03/14 02:58:25;;;;;;;7.17;4.20;;;-1.30;99.90;;;;;;5078302;28;20713;-80
2022/03/14 03:00:52;;;;;;;5.77;4.53;;;-1.30;99.90;;;;;;5077415;28;20315;-79
2022/03/14 03:03:18;;;;;;;6.23;4.37;;;-1.30;99.90;;;;;;5077706;28;20209;-80
2022/03/14 03:05:44;;;;;;;6.37;4.57;;;-1.40;99.90;;;;;;5079861;28;20178;-80
2022/03/14 03:08:13;;;;;;;7.00;4.23;;;-1.40;99.90;;;;;;5078199;28;20182;-79
2022/03/14 03:10:40;;;;;;;7.63;4.17;;;-1.40;99.90;;;;;;5079119;28;20178;-79
2022/03/14 03:13:05;;;;;;;5.97;4.07;;;-1.50;99.90;;;;;;5078851;28;20216;-79
2022/03/14 03:15:31;;;;;;;6.93;4.57;;;-1.40;99.90;;;;;;5080507;28;20177;-80
2022/03/14 03:17:57;;;;;;;6.10;4.20;;;-1.40;99.90;;;;;;5079058;28;20177;-79
2022/03/14 03:20:22;;;;;;;7.77;4.97;;;-1.50;99.90;;;;;;5078451;28;20174;-81
2022/03/14 03:22:49;;;;;;;7.47;4.03;;;-1.60;99.90;;;;;;5079335;28;20706;-81
2022/03/14 03:25:16;;;;;;;5.80;4.23;;;-1.60;99.90;;;;;;5078769;28;20580;-79
2022/03/14 03:27:42;;;;;;;5.77;4.23;;;-1.60;99.90;;;;;;5079855;28;20182;-80
2022/03/14 03:30:08;;;;;;;6.37;5.00;;;-1.60;99.90;;;;;;5078817;28;20237;-80
2022/03/14 03:32:34;;;;;;;7.67;4.70;;;-1.50;99.90;;;;;;5079292;28;20220;-79
2022/03/14 03:35:00;;;;;;;7.53;4.83;;;-1.60;99.90;;;;;;5077971;28;20232;-81
2022/03/14 03:37:25;;;;;;;6.23;4.50;;;-1.60;99.90;;;;;;5075684;28;20173;-81
2022/03/14 03:39:51;;;;;;;6.33;4.30;;;-1.60;99.90;;;;;;5077269;28;20234;-80
2022/03/14 03:42:17;;;;;;;5.67;4.20;;;-1.60;99.90;;;;;;5078300;28;20209;-81
2022/03/14 03:44:43;;;;;;;7.03;4.93;;;-1.60;99.90;;;;;;5076821;28;20269;-79
2022/03/14 03:47:08;;;;;;;7.43;4.83;;;-1.60;99.90;;;;;;5076357;28;20272;-79
2022/03/14 03:49:34;;;;;;;6.83;5.00;;;-1.50;99.90;;;;;;5078771;28;20180;-79
2022/03/14 03:52:00;;;;;;;7.07;4.80;;;-1.50;99.90;;;;;;5077729;28;20991;-81
2022/03/14 03:54:26;;;;;;;7.40;4.83;;;-1.50;99.90;;;;;;5076045;28;20528;-80
2022/03/14 03:56:51;;;;;;;7.83;4.93;;;-1.50;99.90;;;;;;5080155;28;20544;-78
2022/03/14 03:59:17;;;;;;;7.83;4.70;;;-1.50;99.90;;;;;;5077486;28;20298;-79
2022/03/14 04:01:46;;;;;;;6.93;5.00;;;-1.60;99.90;;;;;;5077706;28;20696;-79
2022/03/14 04:04:11;;;;;;;7.83;4.47;;;-1.50;99.90;;;;;;5077024;28;20181;-77
2022/03/14 04:06:39;;;;;;;7.43;5.17;;;-1.60;99.90;;;;;;5077670;28;20226;-77
2022/03/14 04:09:06;;;;;;;7.80;4.80;;;-1.60;99.90;;;;;;5078202;28;20658;-79
2022/03/14 04:11:31;;;;;;;6.53;4.07;;;-1.70;99.90;;;;;;5077741;28;20228;-80
2022/03/14 04:13:58;;;;;;;7.47;4.87;;;-1.80;99.90;;;;;;5077195;28;20209;-78
2022/03/14 04:16:24;;;;;;;11.20;5.50;;;-1.80;99.90;;;;;;5078628;28;20267;-77
2022/03/14 04:18:50;;;;;;;9.97;5.13;;;-1.90;99.90;;;;;;5077152;28;20744;-79
2022/03/14 04:21:16;;;;;;;5.93;4.53;;;-1.90;99.90;;;;;;5076729;28;20212;-80
2022/03/14 04:23:42;;;;;;;7.67;4.77;;;-1.80;99.90;;;;;;5077709;28;20208;-77
2022/03/14 04:26:08;;;;;;;9.23;4.93;;;-1.70;99.90;;;;;;5078633;28;20184;-79
2022/03/14 04:28:36;;;;;;;8.73;5.10;;;-1.70;99.90;;;;;;5079221;28;20177;-79
2022/03/14 04:31:03;;;;;;;6.77;4.40;;;-1.70;99.90;;;;;;5077379;28;20185;-80
2022/03/14 04:33:30;;;;;;;6.10;4.90;;;-1.80;99.90;;;;;;5070987;28;20208;-79
2022/03/14 04:35:57;;;;;;;6.70;4.87;;;-1.70;99.90;;;;;;5073730;28;20284;-79
2022/03/14 04:38:22;;;;;;;7.70;5.10;;;-1.70;99.90;;;;;;5076465;28;20192;-79
2022/03/14 04:40:48;;;;;;;7.87;5.10;;;-1.60;99.90;;;;;;5074141;28;20188;-79
2022/03/14 04:43:14;;;;;;;6.73;4.63;;;-1.60;99.90;;;;;;5076728;28;20353;-80
2022/03/14 04:45:40;;;;;;;8.00;4.67;;;-1.60;99.90;;;;;;5073195;28;20173;-78
2022/03/14 04:48:06;;;;;;;10.40;5.23;;;-1.70;99.90;;;;;;5075042;28;20264;-77
2022/03/14 04:50:33;;;;;;;8.13;5.33;;;-1.70;99.90;;;;;;5071166;28;20639;-80
2022/03/14 04:52:58;;;;;;;8.03;5.00;;;-1.80;99.90;;;;;;5073335;28;20223;-79
2022/03/14 04:55:24;;;;;;;6.63;4.57;;;-1.80;99.90;;;;;;5071046;28;20185;-77
2022/03/14 04:57:56;;;;;;;7.13;4.70;;;-1.80;99.90;;;;;;5075792;28;20234;-78
2022/03/14 05:00:22;;;;;;;7.13;4.90;;;-1.80;99.90;;;;;;5072535;28;20542;-80
2022/03/14 05:02:48;;;;;;;5.73;4.43;;;-1.90;99.90;;;;;;5070848;28;20288;-78
2022/03/14 05:05:14;;;;;;;7.67;4.87;;;-2.00;99.90;;;;;;5074125;28;20362;-79
2022/03/14 05:07:40;;;;;;;6.83;4.60;;;-2.00;99.90;;;;;;5062642;28;20705;-79
2022/03/14 05:10:06;;;;;;;7.67;4.90;;;-2.00;99.90;;;;;;5072334;28;20234;-78
2022/03/14 05:12:33;;;;;;;8.43;5.60;;;-2.00;99.90;;;;;;5068093;28;20208;-79
2022/03/14 05:14:58;;;;;;;8.87;5.00;;;-2.00;99.90;;;;;;5077673;28;20552;-78
2022/03/14 05:17:25;;;;;;;9.90;5.17;;;-2.00;99.90;;;;;;5065721;28;20712;-78
2022/03/14 05:19:50;;;;;;;8.13;5.00;;;-2.00;99.90;;;;;;5067173;28;20185;-78
2022/03/14 05:22:17;;;;;;;7.80;5.00;;;-2.00;99.90;;;;;;5067498;28;20576;-80
2022/03/14 05:24:42;;;;;;;10.03;5.67;;;-2.00;99.90;;;;;;5071410;28;20185;-78
2022/03/14 05:27:08;;;;;;;8.77;5.63;;;-2.00;99.90;;;;;;5066679;28;20616;-78
2022/03/14 05:29:34;;;;;;;9.13;5.70;;;-2.10;99.90;;;;;;5067198;28;20177;-77
2022/03/14 05:31:59;;;;;;;7.23;4.87;;;-2.10;99.90;;;;;;5063261;28;20292;-79
2022/03/14 05:34:25;;;;;;;7.67;5.07;;;-2.10;99.90;;;;;;5069685;28;20202;-79
2022/03/14 05:36:50;;;;;;;9.93;5.23;;;-2.00;99.90;;;;;;5066308;28;20181;-81
2022/03/14 05:39:16;;;;;;;9.73;5.90;;;-2.10;99.90;;;;;;5067221;28;20178;-79
2022/03/14 05:41:42;;;;;;;8.13;5.27;;;-2.00;99.90;;;;;;5075047;28;20224;-78
2022/03/14 05:44:09;;;;;;;6.40;4.63;;;-1.90;99.90;;;;;;5070076;28;20208;-81
2022/03/14 05:46:34;;;;;;;7.07;4.80;;;-1.90;99.90;;;;;;5069319;28;20193;-79
2022/03/14 05:49:00;;;;;;;8.53;5.30;;;-1.90;99.90;;;;;;5071103;28;20188;-80
2022/03/14 05:51:26;;;;;;;9.50;5.50;;;-1.80;99.90;;;;;;5062368;28;20667;-79
2022/03/14 05:53:51;;;;;;;8.47;5.00;;;-1.80;99.90;;;;;;5066839;28;20181;-77
2022/03/14 05:56:17;;;;;;;7.83;4.77;;;-1.70;99.90;;;;;;5067330;28;20177;-77
2022/03/14 05:58:43;;;;;;;8.23;5.17;;;-1.70;99.90;;;;;;5075011;28;20181;-78
2022/03/14 06:01:10;;;;;;;8.37;5.17;;;-1.70;99.90;;;;;;5075326;28;20715;-78
2022/03/14 06:03:35;;;;;;;8.80;5.73;;;-1.60;99.90;;;;;;5075450;28;20189;-79
2022/03/14 06:06:02;;;;;;;7.40;5.23;;;-1.60;99.90;;;;;;5078933;28;20188;-80
2022/03/14 06:08:27;;;;;;;11.83;6.27;;;-1.60;99.90;;;;;;5076963;28;20192;-80
2022/03/14 06:10:54;;;;;;;9.27;5.33;;;-1.50;99.90;;;;;;5075861;28;20178;-77
2022/03/14 06:13:20;;;;;;;8.87;5.23;;;-1.40;99.90;;;;;;5075662;28;20208;-79
2022/03/14 06:15:47;;;;;;;8.30;5.30;;;-1.30;99.90;;;;;;5080092;28;20188;-81
2022/03/14 06:18:14;;;;;;;10.53;5.57;;;-1.20;99.90;;;;;;5055012;28;20204;-77
2022/03/14 06:20:39;;;;;;;9.43;5.40;;;-1.20;99.90;;;;;;5080170;28;21026;-77
2022/03/14 06:23:05;;;;;;;10.60;5.33;;;-1.10;99.90;;;;;;5077637;28;20215;-79
2022/03/14 06:25:31;;;;;;;8.90;5.07;;;-0.90;99.90;;;;;;5077962;28;20218;-80
2022/03/14 06:27:57;;;;;;;8.20;5.03;;;-0.80;99.90;;;;;;5079284;28;20836;-79
2022/03/14 06:30:24;;;;;;;7.70;5.10;;;-0.70;99.90;;;;;;5082313;28;20294;-80
2022/03/14 06:32:50;;;;;;;10.53;4.90;;;-0.60;99.90;;;;;;5078931;28;20316;-78
2022/03/14 06:35:17;;;;;;;9.47;4.97;;;-0.50;99.90;;;;;;5078626;28;20670;-80
2022/03/14 06:37:43;;;;;;;7.37;4.70;;;-0.40;99.90;;;;;;5080679;28;20180;-79
2022/03/14 06:40:09;;;;;;;9.07;5.33;;;-0.30;99.90;;;;;;5079789;28;20593;-82
2022/03/14 06:42:41;;;;;;;8.33;5.20;;;0.00;99.90;;;;;;5080256;28;20200;-79
2022/03/14 06:45:08;;;;;;;6.93;5.10;;;0.10;99.90;;;;;;5070285;28;20193;-79
2022/03/14 06:47:34;;;;;;;8.97;5.43;;;0.20;99.90;;;;;;5071137;28;20651;-79
2022/03/14 06:49:59;;;;;;;8.23;4.97;;;0.40;99.90;;;;;;5075796;28;20192;-79
2022/03/14 06:52:25;;;;;;;8.80;4.93;;;0.50;99.90;;;;;;5078359;28;20328;-78
2022/03/14 06:54:50;;;;;;;9.13;5.93;;;0.60;99.90;;;;;;5077692;28;20208;-80
2022/03/14 06:57:17;;;;;;;8.27;4.83;;;0.70;99.90;;;;;;5079518;28;20651;-80
2022/03/14 06:59:43;;;;;;;8.77;5.33;;;0.80;99.90;;;;;;5078219;28;20195;-79
2022/03/14 07:02:08;;;;;;;9.27;5.13;;;0.90;99.90;;;;;;5079753;28;20209;-78
2022/03/14 07:04:34;;;;;;;9.97;5.20;;;1.00;99.90;;;;;;5080657;28;20685;-78
2022/03/14 07:07:03;;;;;;;8.67;5.03;;;1.10;99.90;;;;;;5079362;28;20192;-78
2022/03/14 07:09:30;;;;;;;8.17;5.10;;;1.10;99.90;;;;;;5075914;28;20181;-80
2022/03/14 07:11:56;;;;;;;7.67;5.67;;;1.30;99.90;;;;;;5078906;28;20269;-78
2022/03/14 07:14:22;;;;;;;5.70;4.30;;;1.40;99.90;;;;;;5077896;28;20274;-80
2022/03/14 07:16:48;;;;;;;7.30;4.70;;;1.60;99.90;;;;;;5077284;28;20192;-81
2022/03/14 07:19:14;;;;;;;8.07;5.27;;;1.80;99.90;;;;;;5072170;28;20265;-78
2022/03/14 07:21:40;;;;;;;8.43;5.03;;;2.00;99.90;;;;;;5078090;28;20287;-78
2022/03/14 07:24:06;;;;;;;8.20;5.20;;;2.20;99.90;;;;;;5073094;28;21040;-78
2022/03/14 07:26:32;;;;;;;10.87;5.37;;;2.30;99.90;;;;;;5076289;28;20181;-80
2022/03/14 07:28:57;;;;;;;7.93;5.17;;;2.60;99.90;;;;;;5075813;28;20681;-78
2022/03/14 07:31:24;;;;;;;6.97;5.20;;;2.90;99.90;;;;;;5079012;28;20201;-78
2022/03/14 07:33:50;;;;;;;10.10;5.40;;;3.10;99.90;;;;;;5078892;28;20188;-79
2022/03/14 07:36:16;;;;;;;7.90;5.20;;;3.30;99.90;;;;;;5065924;28;20189;-81
2022/03/14 07:38:42;;;;;;;11.00;5.70;;;3.50;99.90;;;;;;5058939;28;20188;-79
2022/03/14 07:41:10;;;;;;;7.53;4.90;;;3.70;99.90;;;;;;5060399;28;20177;-80
2022/03/14 07:43:40;;;;;;;7.30;4.93;;;3.80;99.90;;;;;;5071809;28;20208;-78
2022/03/14 07:46:06;;;;;;;6.77;5.00;;;4.00;99.90;;;;;;5069977;28;20936;-81
2022/03/14 07:48:32;;;;;;;7.03;4.70;;;4.00;99.90;;;;;;5065970;28;20185;-81
2022/03/14 07:50:59;;;;;;;8.93;4.97;;;4.10;99.90;;;;;;5072184;28;20213;-80
2022/03/14 07:53:25;;;;;;;7.97;5.07;;;4.20;99.90;;;;;;5075830;28;20198;-82
2022/03/14 07:55:52;;;;;;;8.80;5.63;;;4.30;99.90;;;;;;5075364;28;20170;-80
2022/03/14 07:58:18;;;;;;;7.00;5.13;;;4.30;99.90;;;;;;5075698;28;20196;-78
2022/03/14 08:00:44;;;;;;;9.07;5.67;;;4.40;99.90;;;;;;5074601;28;20177;-79
2022/03/14 08:03:10;;;;;;;9.33;6.13;;;4.50;99.90;;;;;;5076145;28;20247;-79
2022/03/14 08:05:37;;;;;;;7.83;4.87;;;4.60;99.90;;;;;;5080715;28;20247;-81
2022/03/14 08:08:05;;;;;;;6.73;5.17;;;4.70;99.90;;;;;;5071279;28;20181;-82
2022/03/14 08:10:30;;;;;;;6.83;5.33;;;4.90;99.90;;;;;;5072570;28;20559;-80
2022/03/14 08:12:57;;;;;;;7.03;5.23;;;5.10;99.90;;;;;;5074528;28;20217;-80
2022/03/14 08:15:27;;;;;;;8.00;5.20;;;5.30;99.90;;;;;;5072746;28;20212;-81
2022/03/14 08:17:55;;;;;;;7.57;4.87;;;5.50;99.90;;;;;;5075272;28;20189;-81
2022/03/14 08:20:22;;;;;;;8.63;5.53;;;5.70;99.90;;;;;;5075870;28;20311;-82
2022/03/14 08:22:49;;;;;;;10.90;5.43;;;6.00;98.80;;;;;;5071305;28;20213;-81
2022/03/14 08:25:14;;;;;;;11.87;5.63;;;6.30;97.40;;;;;;5073942;28;20322;-82
2022/03/14 08:27:40;;;;;;;9.57;5.50;;;6.50;96.00;;;;;;5074414;28;20297;-80
2022/03/14 08:30:07;;;;;;;11.17;5.90;;;6.80;95.40;;;;;;5079715;28;20702;-82
2022/03/14 08:32:34;;;;;;;9.53;5.77;;;7.00;93.70;;;;;;5068977;28;20240;-82
2022/03/14 08:35:07;;;;;;;11.30;6.00;;;7.10;91.60;;;;;;5066919;28;20181;-83
2022/03/14 08:37:37;;;;;;;10.07;5.83;;;7.20;90.70;;;;;;5071617;28;20173;-80
2022/03/14 08:40:09;;;;;;;7.67;5.30;;;7.30;91.00;;;;;;5074176;28;20183;-81
2022/03/14 08:42:35;;;;;;;8.27;5.80;;;7.50;90.70;;;;;;5075230;28;20736;-82
2022/03/14 08:45:01;;;;;;;7.87;5.37;;;7.60;90.50;;;;;;5075652;28;20616;-79
2022/03/14 08:47:27;;;;;;;8.03;5.47;;;7.70;89.80;;;;;;5074919;28;20182;-80
2022/03/14 08:49:52;;;;;;;7.43;5.33;;;7.80;89.40;;;;;;5073597;28;20555;-81
2022/03/14 08:52:18;;;;;;;7.67;5.73;;;7.90;88.10;;;;;;5075548;28;20219;-81
2022/03/14 08:54:44;;;;;;;8.57;6.20;;;7.90;89.40;;;;;;5075131;28;20205;-80
2022/03/14 08:57:10;;;;;;;8.23;5.97;;;8.00;89.10;;;;;;5074928;28;20230;-80
2022/03/14 08:59:36;;;;;;;8.00;6.10;;;8.10;87.40;;;;;;5075561;28;20264;-81
2022/03/14 09:02:02;;;;;;;10.37;6.17;;;8.20;88.20;;;;;;5074571;28;20205;-81
2022/03/14 09:04:27;;;;;;;9.57;6.43;;;8.40;88.50;;;;;;5073702;28;20217;-81
2022/03/14 09:06:53;;;;;;;9.90;6.23;;;8.40;89.40;;;;;;5073435;28;20204;-79
2022/03/14 09:09:18;;;;;;;9.33;6.13;;;8.60;89.90;;;;;;5077012;28;20173;-80
2022/03/14 09:11:45;;;;;;;9.90;7.33;;;8.80;89.30;;;;;;5075261;28;20282;-82
2022/03/14 09:14:11;;;;;;;9.03;7.03;;;8.90;89.40;;;;;;5081906;28;20185;-82
2022/03/14 09:16:37;;;;;;;10.90;7.27;;;9.00;89.40;;;;;;5076684;28;20276;-82
2022/03/14 09:19:03;;;;;;;11.37;7.17;;;8.80;88.30;;;;;;5073885;28;20185;-83
2022/03/14 09:21:29;;;;;;;10.70;7.03;;;8.70;88.70;;;;;;5074668;28;20208;-81
2022/03/14 09:23:55;;;;;;;8.97;6.50;;;8.70;89.30;;;;;;5074870;28;20187;-79
2022/03/14 09:26:20;;;;;;;9.47;6.63;;;8.60;90.00;;;;;;5078124;28;20225;-82
2022/03/14 09:28:48;;;;;;;8.40;6.33;;;8.60;89.70;;;;;;5076593;28;20257;-82
2022/03/14 09:31:14;;;;;;;8.03;6.33;;;8.50;90.30;;;;;;5078614;28;20190;-82
2022/03/14 09:33:40;;;;;;;8.67;6.70;;;8.50;90.40;;;;;;5077928;28;20283;-81
2022/03/14 09:36:06;;;;;;;8.30;6.23;;;8.40;90.70;;;;;;5078294;28;21042;-81
2022/03/14 09:38:32;;;;;;;12.13;6.70;;;8.50;90.80;;;;;;5080294;28;20218;-84
2022/03/14 09:41:03;;;;;;;8.73;6.43;;;8.50;90.90;;;;;;5078565;28;20211;-83
2022/03/14 09:43:31;;;;;;;8.53;7.00;;;8.50;91.40;;;;;;5075516;28;20213;-82
2022/03/14 09:45:58;;;;;;;10.27;7.40;;;8.60;91.00;;;;;;5077114;28;20192;-81
2022/03/14 09:48:24;;;;;;;10.77;8.93;;;8.70;91.10;;;;;;5076080;28;20234;-83
2022/03/14 09:50:50;;;;;;;11.77;8.07;;;8.80;91.00;;;;;;5082780;28;20177;-83
2022/03/14 09:53:18;;;;;;;10.67;7.57;;;9.00;90.90;;;;;;5075904;28;20205;-79
2022/03/14 09:55:46;;;;;;;12.10;8.93;;;9.10;90.60;;;;;;5074614;28;20212;-82
2022/03/14 09:58:20;;;;;;;8.43;6.73;;;9.10;90.50;;;;;;5079324;28;20921;-81
2022/03/14 10:00:46;;;;;;;10.13;7.60;;;9.20;90.70;;;;;;5075221;28;20195;-84
2022/03/14 10:03:13;;;;;;;9.10;6.90;;;9.20;91.20;;;;;;5076863;28;20212;-82
2022/03/14 10:05:39;;;;;;;9.80;7.30;;;9.40;91.60;;;;;;5076893;28;20283;-80
2022/03/14 10:08:05;;;;;;;9.80;7.30;;;9.60;92.00;;;;;;5075837;28;20548;-83
2022/03/14 10:10:31;;;;;;;8.80;7.17;;;9.80;92.50;;;;;;5071509;28;20181;-84
2022/03/14 10:12:57;;;;;;;10.00;7.10;;;9.90;92.90;;;;;;5079198;28;20428;-81
2022/03/14 10:15:27;;;;;;;8.73;6.93;;;10.00;93.50;;;;;;5074518;28;20180;-80
2022/03/14 10:17:55;;;;;;;9.37;6.60;;;9.90;94.20;;;;;;5074753;28;20185;-80
2022/03/14 10:20:23;;;;;;;9.57;6.67;;;9.80;95.00;;;;;;5079105;28;20682;-82
2022/03/14 10:22:50;;;;;;;9.10;6.43;;;9.80;96.60;;;;;;5077597;28;20208;-82
2022/03/14 10:25:18;;;;;;;8.53;6.73;;;9.90;97.80;;;;;;5078705;28;20182;-80
2022/03/14 10:27:55;;;;;;;8.33;6.07;;;9.80;99.00;;;;;;5079288;28;20188;-80
2022/03/14 10:30:29;;;;;;;9.27;6.47;;;10.00;99.70;;;;;;5075906;28;20276;-79
2022/03/14 10:33:01;;;;;;;11.40;7.13;;;10.20;99.90;;;;;;5077898;28;20220;-83
2022/03/14 10:35:31;;;;;;;9.80;6.90;;;10.30;99.90;;;;;;5071544;28;20189;-82
2022/03/14 10:38:02;;;;;;;8.27;6.10;;;10.50;99.90;;;;;;5079942;28;20223;-78
2022/03/14 10:40:30;;;;;;;12.10;6.67;;;10.50;99.90;;;;;;5080018;28;20181;-80
2022/03/14 10:42:56;;;;;;;8.60;7.33;;;10.40;99.90;;;;;;5073761;28;20220;-82
2022/03/14 10:45:21;;;;;;;8.23;6.30;;;10.30;99.90;;;;;;5074051;28;20587;-80
2022/03/14 10:47:53;;;;;;;9.37;6.63;;;10.30;99.90;;;;;;5077532;28;20177;-81
2022/03/14 10:50:36;;;;;;;9.93;6.97;;;10.20;99.90;;;;;;5079724;28;20666;-81
2022/03/14 10:53:02;;;;;;;8.27;6.67;;;10.30;99.90;;;;;;5082053;28;20214;-81
2022/03/14 10:55:58;;;;;;;8.60;6.77;;;10.30;99.90;;;;;;5075688;28;20863;-80
2022/03/14 10:58:30;;;;;;;7.37;6.37;;;10.20;99.90;;;;;;5076814;28;20221;-82
2022/03/14 11:00:58;;;;;;;8.80;6.80;;;10.40;99.90;;;;;;5073419;28;20185;-82
2022/03/14 11:03:29;;;;;;;8.53;7.10;;;10.40;99.90;;;;;;5076786;28;20295;-81
2022/03/14 11:06:03;;;;;;;12.37;7.37;;;10.50;99.90;;;;;;5074594;28;20231;-81
2022/03/14 11:08:37;;;;;;;7.87;6.37;;;10.60;99.90;;;;;;5071573;28;20222;-81
2022/03/14 11:11:08;;;;;;;8.97;6.73;;;10.80;99.90;;;;;;5077815;28;20192;-80
2022/03/14 11:13:38;;;;;;;9.70;6.70;;;11.00;99.90;;;;;;5075720;28;20204;-81
2022/03/14 11:16:04;;;;;;;8.60;6.53;;;10.80;99.90;;;;;;5075107;28;20276;-81
2022/03/14 11:18:31;;;;;;;12.53;6.53;;;10.80;99.90;;;;;;5079511;28;20272;-83
2022/03/14 11:21:00;;;;;;;7.77;5.70;;;10.70;99.90;;;;;;5078657;28;20189;-81
2022/03/14 11:23:26;;;;;;;8.70;6.70;;;10.60;99.90;;;;;;5073519;28;20217;-81
2022/03/14 11:25:52;;;;;;;7.10;5.67;;;10.50;99.90;;;;;;5073316;28;20177;-81
2022/03/14 11:28:22;;;;;;;6.93;5.73;;;10.50;99.90;;;;;;5079917;28;20592;-81
2022/03/14 11:30:57;;;;;;;7.73;5.87;;;10.40;99.90;;;;;;5081032;28;20177;-82
2022/03/14 11:33:23;;;;;;;8.00;5.70;;;10.40;99.90;;;;;;5073334;28;20686;-82
2022/03/14 11:35:50;;;;;;;8.27;5.80;;;10.50;99.90;;;;;;5075629;28;20189;-80
2022/03/14 11:38:17;;;;;;;8.20;6.10;;;10.30;99.90;;;;;;5077428;28;20189;-80
2022/03/14 11:40:42;;;;;;;6.93;5.23;;;10.30;99.90;;;;;;5085109;28;20181;-79
2022/03/14 11:43:09;;;;;;;6.60;5.90;;;10.10;99.90;;;;;;5077568;28;21058;-81
2022/03/14 11:45:36;;;;;;;6.23;5.10;;;9.80;99.90;;;;;;5075974;28;20189;-81
2022/03/14 11:48:05;;;;;;;8.30;5.43;;;9.50;99.90;;;;;;5074055;28;20185;-81
2022/03/14 11:50:53;;;;;;;6.50;5.40;;;9.30;99.90;;;;;;5069121;28;20181;-82
2022/03/14 11:53:25;;;;;;;6.60;5.60;;;9.20;99.90;;;;;;5074749;28;20219;-81
2022/03/14 11:56:05;;;;;;;8.07;5.83;;;9.00;99.90;;;;;;5071612;28;20193;-81
2022/03/14 11:58:41;;;;;;;6.90;5.87;;;8.90;99.90;;;;;;5074623;28;20262;-84
2022/03/14 12:01:23;;;;;;;7.43;6.37;;;8.70;99.90;;;;;;5070246;28;20217;-81
2022/03/14 12:03:54;;;;;;;8.97;6.23;;;8.70;99.90;;;;;;5078165;28;20204;-79
2022/03/14 12:06:47;;;;;;;7.97;6.00;;;8.70;99.90;;;;;;5068020;28;20608;-80
2022/03/14 12:09:25;;;;;;;7.47;5.33;;;8.50;99.90;;;;;;5074807;28;20185;-79
2022/03/14 12:12:13;;;;;;;16.53;10.47;;;8.40;99.90;;;;;;5071030;28;20212;-80
2022/03/14 12:14:44;;;;;;;8.93;6.53;;;8.30;99.90;;;;;;5061216;28;20630;-79
2022/03/14 12:17:13;;;;;;;7.47;6.07;;;8.30;99.90;;;;;;5076100;28;20193;-80
2022/03/14 12:19:42;;;;;;;8.10;6.17;;;8.20;99.90;;;;;;5065284;28;20277;-80
2022/03/14 12:22:12;;;;;;;8.97;6.87;;;8.20;99.90;;;;;;5074288;28;20216;-79
2022/03/14 12:24:38;;;;;;;7.70;6.00;;;8.10;99.90;;;;;;5077013;28;20533;-79
2022/03/14 12:27:15;;;;;;;8.37;6.10;;;8.20;99.90;;;;;;5074124;28;20192;-81
2022/03/14 12:29:41;;;;;;;8.37;6.10;;;8.20;99.90;;;;;;5076205;28;20307;-80
2022/03/14 12:32:41;;;;;;;8.33;6.37;;;8.20;99.90;;;;;;5077995;28;20239;-80
2022/03/14 12:35:12;;;;;;;8.50;6.23;;;8.20;99.90;;;;;;5075284;28;20185;-79
2022/03/14 12:37:39;;;;;;;7.00;6.00;;;8.10;99.90;;;;;;5075053;28;20186;-78
2022/03/14 12:40:34;;;;;;;8.13;6.57;;;8.10;99.90;;;;;;5073932;28;20659;-79
2022/03/14 12:43:27;;;;;;;8.63;6.67;;;8.00;99.90;;;;;;5074058;28;20275;-80
2022/03/14 12:46:02;;;;;;;9.43;6.97;;;7.90;99.90;;;;;;5077556;28;20572;-80
2022/03/14 12:48:30;;;;;;;9.13;6.83;;;7.80;99.90;;;;;;5076206;28;20172;-81
2022/03/14 12:50:57;;;;;;;10.17;7.13;;;7.80;99.90;;;;;;5076075;28;20681;-81